Time;durP1;ratioP1;P1;durP2;ratioP2;P2;SDS_P1;SDS_P2;PMS_P1;PMS_P2;Temp;Humidity;BMP_temperature;BMP_pressure;BME280_temperature;BME280_humidity;BME280_pressure;Samples;Min_cycle;Max_cycle;Signal;HPM_P1;HPM_P2
2023/08/14 00:00:19;;;;;;;3.97;3.08;;;;;;;22.23;58.25;93629.97;5073184;28;20043;-92
2023/08/14 00:02:45;;;;;;;3.05;2.60;;;;;;;22.21;58.33;93630.50;5051172;28;20029;-92
2023/08/14 00:05:10;;;;;;;3.53;2.88;;;;;;;22.21;58.30;93632.50;5067086;28;20047;-91
2023/08/14 00:07:36;;;;;;;3.22;2.70;;;;;;;22.21;58.59;93649.78;5070571;28;20041;-90
2023/08/14 00:10:01;;;;;;;2.72;2.53;;;;;;;22.21;58.15;93643.53;5052485;28;20485;-90
2023/08/14 00:12:27;;;;;;;2.78;2.50;;;;;;;22.21;58.66;93657.28;5051172;28;20060;-92
2023/08/14 00:14:52;;;;;;;3.05;2.75;;;;;;;22.21;58.64;93688.31;5067636;28;20553;-94
2023/08/14 00:17:18;;;;;;;2.90;2.65;;;;;;;22.23;58.20;93698.81;5067060;28;20502;-92
2023/08/14 00:19:43;;;;;;;2.67;2.30;;;;;;;22.21;58.31;93679.31;5066172;28;20095;-92
2023/08/14 00:22:08;;;;;;;2.90;2.35;;;;;;;22.20;58.31;93677.84;5083357;28;20037;-91
2023/08/14 00:24:34;;;;;;;3.03;2.33;;;;;;;22.20;58.32;93689.59;5051873;28;20298;-92
2023/08/14 00:26:59;;;;;;;4.57;2.88;;;;;;;22.21;58.42;93688.31;5070416;28;20041;-91
2023/08/14 00:29:26;;;;;;;3.00;2.58;;;;;;;22.21;58.53;93676.56;5053761;28;20406;-93
2023/08/14 00:31:51;;;;;;;3.92;2.75;;;;;;;22.20;58.26;93662.06;5071451;28;20036;-90
2023/08/14 00:34:16;;;;;;;3.40;3.10;;;;;;;22.20;58.39;93670.31;5064618;28;20068;-91
2023/08/14 00:36:42;;;;;;;2.95;2.65;;;;;;;22.19;58.24;93677.09;5108719;28;20040;-91
2023/08/14 00:39:07;;;;;;;3.38;2.38;;;;;;;22.19;58.33;93685.34;5090728;28;20056;-92
2023/08/14 00:41:33;;;;;;;2.60;2.40;;;;;;;22.19;58.39;93677.09;5075809;28;20048;-91
2023/08/14 00:43:58;;;;;;;3.35;3.00;;;;;;;22.20;58.31;93661.31;5053495;28;20144;-92
2023/08/14 00:46:24;;;;;;;2.83;2.55;;;;;;;22.19;58.08;93659.81;5050602;28;20032;-90
2023/08/14 00:48:49;;;;;;;2.83;2.60;;;;;;;22.18;58.17;93670.09;5061974;28;20196;-92
2023/08/14 00:51:15;;;;;;;3.55;3.10;;;;;;;22.18;58.25;93659.09;5072894;28;20041;-92
2023/08/14 00:53:40;;;;;;;3.33;3.03;;;;;;;22.18;58.55;93661.84;5058226;28;20032;-92
2023/08/14 00:56:06;;;;;;;3.33;2.88;;;;;;;22.19;58.69;93657.06;5076360;28;20489;-92
2023/08/14 00:58:31;;;;;;;3.00;2.47;;;;;;;22.18;58.28;93666.59;5076430;28;20555;-92
2023/08/14 01:00:57;;;;;;;2.47;2.25;;;;;;;22.19;58.41;93670.84;5055321;28;20514;-92
2023/08/14 01:03:23;;;;;;;3.10;2.72;;;;;;;22.18;58.32;93659.09;5071423;28;20084;-90
2023/08/14 01:05:48;;;;;;;4.95;3.28;;;;;;;22.17;58.46;93657.59;5073583;28;20517;-90
2023/08/14 01:08:14;;;;;;;2.92;2.55;;;;;;;22.18;58.25;93655.59;5056829;28;20353;-92
2023/08/14 01:10:55;;;;;;;2.55;2.35;;;;;;;22.17;58.35;93652.09;5076881;28;20379;-91
2023/08/14 01:13:35;;;;;;;3.10;2.65;;;;;;;22.17;58.33;93652.09;5111193;27;20450;-92
2023/08/14 01:16:06;;;;;;;2.60;2.40;;;;;;;22.16;58.38;93667.13;5056448;28;20041;-90
2023/08/14 01:18:31;;;;;;;3.38;2.42;;;;;;;22.17;58.34;93670.63;5074116;28;20033;-93
2023/08/14 01:21:12;;;;;;;3.65;2.67;;;;;;;22.16;58.78;93663.63;5076276;28;20041;-90
2023/08/14 01:23:59;;;;;;;2.88;2.45;;;;;;;22.16;58.40;93667.13;5056205;28;20150;-91
2023/08/14 01:26:25;;;;;;;2.83;2.63;;;;;;;22.16;58.50;93661.63;5089712;28;20193;-92
2023/08/14 01:28:50;;;;;;;3.30;2.65;;;;;;;22.16;58.52;93664.38;5060054;28;20085;-91
2023/08/14 01:31:15;;;;;;;2.95;2.65;;;;;;;22.17;58.30;93659.63;5076176;28;20036;-90
2023/08/14 01:33:41;;;;;;;3.33;2.58;;;;;;;22.18;58.29;93674.88;5076673;28;20040;-93
2023/08/14 01:36:15;;;;;;;2.85;2.60;;;;;;;22.16;58.37;93669.88;5071642;28;20073;-92
2023/08/14 01:39:06;;;;;;;2.60;2.40;;;;;;;22.15;58.49;93668.41;5073524;28;20043;-92
2023/08/14 01:41:41;;;;;;;2.90;2.60;;;;;;;22.16;58.42;93677.41;5061643;28;20037;-91
2023/08/14 01:44:08;;;;;;;4.05;2.80;;;;;;;22.16;58.38;93680.91;5072804;28;20659;-93
2023/08/14 01:46:34;;;;;;;3.28;2.97;;;;;;;22.17;58.23;93676.88;5053449;28;20029;-91
2023/08/14 01:48:59;;;;;;;4.35;2.78;;;;;;;22.17;58.46;93678.88;5072247;28;20048;-90
2023/08/14 01:51:25;;;;;;;3.45;2.70;;;;;;;22.17;58.40;93670.63;5059508;28;20043;-93
2023/08/14 01:53:50;;;;;;;3.65;2.88;;;;;;;22.15;58.31;93671.16;5059224;28;20038;-92
2023/08/14 01:56:16;;;;;;;2.83;2.38;;;;;;;22.16;58.48;93672.63;5094773;27;20039;-90
2023/08/14 01:58:42;;;;;;;3.15;2.78;;;;;;;22.17;58.35;93678.88;5096093;27;20027;-91
2023/08/14 02:01:08;;;;;;;2.60;2.40;;;;;;;22.16;58.49;93666.38;5091312;27;20035;-91
2023/08/14 02:03:35;;;;;;;3.05;2.30;;;;;;;22.15;58.31;93679.41;5082731;28;20062;-91
2023/08/14 02:06:00;;;;;;;2.58;2.35;;;;;;;22.17;58.21;93670.63;5058952;28;20039;-89
2023/08/14 02:08:26;;;;;;;3.60;2.63;;;;;;;22.16;58.30;93669.16;5059322;28;20095;-91
2023/08/14 02:10:51;;;;;;;3.10;2.78;;;;;;;22.16;58.31;93672.63;5071954;27;20088;-92
2023/08/14 02:13:17;;;;;;;3.08;2.45;;;;;;;22.16;58.25;93675.41;5078852;28;20047;-92
2023/08/14 02:15:45;;;;;;;3.72;3.13;;;;;;;22.15;58.31;93671.16;5073512;28;20096;-89
2023/08/14 02:18:12;;;;;;;2.95;2.70;;;;;;;22.16;58.46;93674.66;5071672;28;20124;-90
2023/08/14 02:20:45;;;;;;;2.95;2.65;;;;;;;22.15;58.49;93665.66;5084094;27;20168;-92
2023/08/14 02:23:10;;;;;;;2.50;2.28;;;;;;;22.16;58.36;93666.38;5079106;27;20554;-92
2023/08/14 02:25:41;;;;;;;2.75;2.45;;;;;;;22.15;58.38;93673.16;5077922;28;20048;-92
2023/08/14 02:28:07;;;;;;;3.13;2.75;;;;;;;22.15;58.49;93659.41;5071561;28;20032;-92
2023/08/14 02:30:37;;;;;;;2.72;2.53;;;;;;;22.14;58.50;93666.19;5081838;27;20054;-93
2023/08/14 02:33:02;;;;;;;2.63;2.40;;;;;;;22.15;58.38;93648.38;5078779;27;20074;-90
2023/08/14 02:35:28;;;;;;;3.40;2.95;;;;;;;22.14;58.26;93655.91;5058513;28;20059;-93
2023/08/14 02:37:53;;;;;;;2.78;2.45;;;;;;;22.15;58.35;93645.63;5076056;28;20043;-90
2023/08/14 02:40:19;;;;;;;2.80;2.55;;;;;;;22.14;58.36;93644.16;5077081;27;20067;-91
2023/08/14 02:42:44;;;;;;;3.42;2.97;;;;;;;22.14;58.35;93639.38;5056501;28;20035;-93
2023/08/14 02:45:09;;;;;;;3.58;2.65;;;;;;;22.14;58.58;93633.13;5083610;28;20048;-92
2023/08/14 02:47:35;;;;;;;3.22;2.80;;;;;;;22.14;58.51;93638.63;5059024;28;20031;-91
2023/08/14 02:50:01;;;;;;;3.00;2.60;;;;;;;22.13;58.26;93626.16;5057849;28;20044;-91
2023/08/14 02:52:27;;;;;;;2.25;2.05;;;;;;;22.13;58.36;93632.38;5075438;28;20455;-92
2023/08/14 02:54:52;;;;;;;3.15;2.72;;;;;;;22.12;58.33;93625.41;5044510;28;20483;-93
2023/08/14 02:57:17;;;;;;;3.33;2.90;;;;;;;22.13;58.57;93626.16;5015076;28;20606;-91
2023/08/14 02:59:43;;;;;;;3.25;2.95;;;;;;;22.13;58.48;93620.63;5041867;28;20542;-92
2023/08/14 03:02:08;;;;;;;3.33;2.85;;;;;;;22.12;58.58;93619.16;5067996;28;20501;-91
2023/08/14 03:04:34;;;;;;;2.83;2.53;;;;;;;22.12;58.27;93622.66;5040885;28;20043;-91
2023/08/14 03:06:59;;;;;;;3.17;2.88;;;;;;;22.14;58.42;93624.88;5072019;28;20036;-92
2023/08/14 03:09:25;;;;;;;2.85;2.50;;;;;;;22.12;58.44;93636.41;5067849;28;20050;-92
2023/08/14 03:11:50;;;;;;;2.78;2.40;;;;;;;22.13;58.45;93623.38;5051561;28;20033;-92
2023/08/14 03:14:15;;;;;;;3.13;2.83;;;;;;;22.12;58.43;93633.66;5049918;28;20422;-91
2023/08/14 03:16:41;;;;;;;3.42;2.67;;;;;;;22.11;58.60;93632.19;5034995;28;20036;-92
2023/08/14 03:19:06;;;;;;;3.45;2.50;;;;;;;22.13;58.42;93635.16;5050893;28;20037;-93
2023/08/14 03:21:32;;;;;;;3.15;2.60;;;;;;;22.12;58.56;93621.91;5056395;28;20032;-92
2023/08/14 03:23:57;;;;;;;4.15;3.20;;;;;;;22.11;58.50;93598.41;5055055;28;20085;-92
2023/08/14 03:26:23;;;;;;;4.32;2.80;;;;;;;22.12;58.64;93617.13;5069747;28;20161;-90
2023/08/14 03:28:48;;;;;;;3.28;2.67;;;;;;;22.14;58.54;93616.63;5072524;28;20043;-91
2023/08/14 03:31:13;;;;;;;3.17;2.70;;;;;;;22.12;58.56;93619.91;5049082;28;20063;-94
2023/08/14 03:33:39;;;;;;;7.93;4.82;;;;;;;22.17;58.33;93624.56;5035349;28;20117;-93
2023/08/14 03:36:04;;;;;;;12.25;7.93;;;;;;;22.31;58.84;93628.03;5067140;28;20045;-91
2023/08/14 03:38:30;;;;;;;51.97;32.97;;;;;;;22.28;58.97;93618.09;5037930;28;20076;-88
2023/08/14 03:40:57;;;;;;;13.82;7.28;;;;;;;22.29;58.42;93622.34;5054596;28;20063;-92
2023/08/14 03:43:23;;;;;;;7.32;3.72;;;;;;;22.39;58.47;93622.63;5062861;28;20494;-93
2023/08/14 03:45:48;;;;;;;4.07;3.00;;;;;;;22.39;58.26;93614.38;5052122;28;20094;-90
2023/08/14 03:48:17;;;;;;;16.23;12.15;;;;;;;22.34;58.39;93615.97;5036168;28;20428;-92
2023/08/14 03:50:47;;;;;;;10.93;6.85;;;;;;;22.29;58.38;93605.81;5040716;28;20070;-90
2023/08/14 03:53:18;;;;;;;4.95;4.10;;;;;;;22.26;58.36;93600.63;5029673;28;20064;-90
2023/08/14 03:55:50;;;;;;;10.13;4.30;;;;;;;22.24;58.92;93603.91;5028611;28;20491;-90
2023/08/14 03:58:19;;;;;;;5.25;4.03;;;;;;;22.23;59.25;93599.66;5043894;28;20044;-89
2023/08/14 04:00:48;;;;;;;19.38;7.90;;;;;;;22.24;58.61;93598.41;5045192;28;20037;-89
2023/08/14 04:03:14;;;;;;;18.52;7.20;;;;;;;22.24;59.26;93579.13;5010558;28;20060;-89
2023/08/14 04:05:40;;;;;;;13.05;6.57;;;;;;;22.21;61.75;93589.19;5059830;28;20440;-89
2023/08/14 04:08:07;;;;;;;10.27;6.53;;;;;;;22.13;63.08;93596.59;5044334;28;20037;-90
2023/08/14 04:10:33;;;;;;;10.77;6.65;;;;;;;22.13;63.11;93591.09;5048999;28;20569;-92
2023/08/14 04:12:59;;;;;;;8.75;6.18;;;;;;;22.12;63.93;93588.88;5037167;28;20041;-91
2023/08/14 04:15:25;;;;;;;9.50;7.07;;;;;;;22.03;64.71;93597.56;5076373;28;20584;-92
2023/08/14 04:17:50;;;;;;;14.02;6.97;;;;;;;21.97;64.91;93602.41;5067008;28;20037;-91
2023/08/14 04:20:15;;;;;;;11.98;7.85;;;;;;;21.93;65.46;93601.97;5058411;28;20036;-91
2023/08/14 04:22:41;;;;;;;10.95;7.50;;;;;;;21.96;65.41;93598.16;5073464;28;20416;-90
2023/08/14 04:25:07;;;;;;;14.13;7.60;;;;;;;21.91;65.51;93605.25;5067053;28;20062;-91
2023/08/14 04:27:33;;;;;;;17.02;8.32;;;;;;;21.88;65.61;93609.06;5036489;28;20036;-90
2023/08/14 04:29:59;;;;;;;10.55;7.43;;;;;;;21.85;66.13;93610.88;5040178;28;20446;-92
2023/08/14 04:32:25;;;;;;;10.00;6.80;;;;;;;21.94;65.54;93611.72;5054675;28;20044;-92
2023/08/14 04:34:50;;;;;;;13.20;7.22;;;;;;;22.03;65.31;93603.81;5035020;28;20037;-91
2023/08/14 04:37:16;;;;;;;12.50;7.60;;;;;;;21.95;65.59;93605.69;5056429;28;20029;-88
2023/08/14 04:39:41;;;;;;;9.15;6.47;;;;;;;21.94;65.73;93611.72;5068210;28;20051;-89
2023/08/14 04:42:07;;;;;;;13.65;6.93;;;;;;;21.91;65.88;93616.28;5066061;28;20055;-91
2023/08/14 04:44:33;;;;;;;8.77;6.80;;;;;;;21.97;65.96;93616.91;5031666;28;20045;-91
2023/08/14 04:46:58;;;;;;;11.80;6.70;;;;;;;21.87;66.03;93618.59;5032527;28;20053;-90
2023/08/14 04:49:24;;;;;;;26.73;9.48;;;;;;;22.02;66.41;93607.09;5037022;28;20458;-90
2023/08/14 04:51:49;;;;;;;27.70;10.35;;;;;;;21.97;66.58;93619.66;5052365;28;20085;-90
2023/08/14 04:54:15;;;;;;;22.58;8.52;;;;;;;21.86;67.24;93615.13;5033819;28;20380;-90
2023/08/14 04:56:40;;;;;;;14.52;7.00;;;;;;;21.79;67.43;93618.50;5035012;28;20055;-90
2023/08/14 04:59:06;;;;;;;20.15;7.97;;;;;;;21.77;67.47;93612.78;5034750;28;20040;-90
2023/08/14 05:01:31;;;;;;;18.85;8.30;;;;;;;21.76;67.49;93624.31;5035351;28;20073;-89
2023/08/14 05:03:57;;;;;;;14.25;8.23;;;;;;;21.79;67.58;93620.50;5034295;28;20514;-90
2023/08/14 05:06:23;;;;;;;9.93;6.90;;;;;;;21.71;67.60;93620.38;5049914;28;20052;-89
2023/08/14 05:08:50;;;;;;;12.45;6.63;;;;;;;21.70;67.82;93616.16;5068950;28;20070;-90
2023/08/14 05:11:18;;;;;;;21.38;13.88;;;;;;;21.69;67.42;93624.94;5067410;28;20452;-89
2023/08/14 05:13:44;;;;;;;20.35;12.05;;;;;;;21.68;67.53;93632.44;5031342;28;20522;-87
2023/08/14 05:16:10;;;;;;;33.03;13.13;;;;;;;21.74;67.20;93633.09;5055561;28;20046;-87
2023/08/14 05:18:35;;;;;;;22.80;10.77;;;;;;;21.71;67.42;93630.66;5058953;28;20487;-89
2023/08/14 05:21:01;;;;;;;17.42;8.68;;;;;;;21.75;67.08;93633.84;5073109;28;20043;-89
2023/08/14 05:23:27;;;;;;;22.52;8.10;;;;;;;21.77;67.29;93640.28;5043165;28;20044;-89
2023/08/14 05:25:52;;;;;;;24.77;9.27;;;;;;;21.79;67.40;93642.53;5022674;28;20505;-90
2023/08/14 05:28:17;;;;;;;19.42;9.35;;;;;;;21.79;67.24;93639.78;5067602;28;20040;-91
2023/08/14 05:30:44;;;;;;;13.13;8.05;;;;;;;21.78;67.42;93644.53;5041502;28;20048;-89
2023/08/14 05:33:09;;;;;;;24.10;9.15;;;;;;;21.80;67.10;93641.25;5070429;28;20154;-90
2023/08/14 05:35:35;;;;;;;10.70;7.43;;;;;;;21.80;67.38;93639.25;5054926;28;20279;-90
2023/08/14 05:38:00;;;;;;;12.85;6.65;;;;;;;21.79;67.51;93637.75;5068183;28;20047;-90
2023/08/14 05:40:26;;;;;;;11.02;7.15;;;;;;;21.80;67.65;93641.25;5053662;28;20040;-90
2023/08/14 05:43:02;;;;;;;8.02;6.18;;;;;;;21.78;67.66;93646.53;5067752;28;20047;-91
2023/08/14 05:45:28;;;;;;;11.52;6.53;;;;;;;21.84;67.33;93650.69;5054735;28;20047;-89
2023/08/14 05:47:53;;;;;;;10.00;6.47;;;;;;;21.86;67.15;93652.91;5039433;28;20033;-90
2023/08/14 05:50:21;;;;;;;13.18;7.47;;;;;;;22.00;66.92;93654.44;5067797;28;20040;-90
2023/08/14 05:52:46;;;;;;;13.73;6.88;;;;;;;22.06;67.10;93657.09;5053129;28;20036;-90
2023/08/14 05:55:12;;;;;;;21.88;7.03;;;;;;;21.93;67.46;93654.28;5063906;28;20473;-90
2023/08/14 05:57:37;;;;;;;27.73;7.80;;;;;;;21.86;67.70;93655.66;5074728;28;20039;-90
2023/08/14 06:00:03;;;;;;;15.55;7.40;;;;;;;21.86;67.66;93656.41;5067512;28;20029;-90
2023/08/14 06:02:29;;;;;;;14.77;7.20;;;;;;;21.97;67.61;93660.22;5088532;28;20040;-91
2023/08/14 06:04:54;;;;;;;24.65;9.10;;;;;;;22.00;67.54;93662.69;5071375;28;20048;-91
2023/08/14 06:07:20;;;;;;;110.18;80.03;;;;;;;22.11;67.25;93665.22;5069162;28;20029;-89
2023/08/14 06:09:45;;;;;;;188.52;124.28;;;;;;;22.07;66.98;93664.06;5055137;28;20032;-89
2023/08/14 06:12:11;;;;;;;43.15;25.80;;;;;;;22.13;67.35;93659.94;5070821;28;20470;-93
2023/08/14 06:14:36;;;;;;;16.85;8.95;;;;;;;22.18;67.63;93672.84;5085886;28;20051;-89
2023/08/14 06:17:02;;;;;;;12.88;7.70;;;;;;;22.14;67.53;93666.91;5108132;28;20043;-90
2023/08/14 06:19:27;;;;;;;24.02;14.25;;;;;;;22.18;67.64;93663.84;5057868;28;20713;-91
2023/08/14 06:21:54;;;;;;;26.33;14.30;;;;;;;22.18;67.83;93659.09;5067709;28;20032;-90
2023/08/14 06:24:21;;;;;;;19.23;10.82;;;;;;;22.13;68.12;93662.69;5050229;28;20504;-92
2023/08/14 06:26:46;;;;;;;14.73;9.95;;;;;;;22.17;67.69;93665.13;5071946;28;20036;-91
2023/08/14 06:29:12;;;;;;;10.75;8.30;;;;;;;22.14;67.96;93666.19;5049692;28;20133;-92
2023/08/14 06:31:37;;;;;;;13.07;8.38;;;;;;;22.05;67.89;93667.34;5076171;28;20059;-91
2023/08/14 06:34:03;;;;;;;11.02;7.90;;;;;;;22.05;67.89;93667.34;5066931;28;20037;-89
2023/08/14 06:36:28;;;;;;;42.38;11.30;;;;;;;22.10;68.10;93666.50;5082691;28;20134;-89
2023/08/14 06:38:54;;;;;;;34.58;11.50;;;;;;;22.11;67.78;93667.97;5054288;28;20041;-90
2023/08/14 06:41:19;;;;;;;37.38;11.80;;;;;;;22.13;67.53;93668.19;5057654;28;20063;-90
2023/08/14 06:43:45;;;;;;;46.00;12.95;;;;;;;22.13;67.29;93661.94;5058917;28;20047;-90
2023/08/14 06:46:10;;;;;;;42.00;11.80;;;;;;;22.15;67.39;93662.16;5071294;28;20043;-89
2023/08/14 06:48:36;;;;;;;52.78;12.75;;;;;;;22.20;67.22;93656.53;5070205;28;20061;-92
2023/08/14 06:51:01;;;;;;;42.03;12.25;;;;;;;22.17;67.38;93640.34;5053740;28;20044;-91
2023/08/14 06:53:26;;;;;;;40.85;11.73;;;;;;;22.22;67.21;93651.25;5071109;28;20123;-91
2023/08/14 06:55:52;;;;;;;39.65;9.90;;;;;;;22.19;67.11;93655.06;5055794;28;20039;-92
2023/08/14 06:58:17;;;;;;;16.65;8.10;;;;;;;22.24;67.07;93650.72;5072605;28;20038;-92
2023/08/14 07:00:43;;;;;;;21.63;7.50;;;;;;;22.32;67.20;93657.06;5073931;28;20494;-90
2023/08/14 07:03:08;;;;;;;15.00;7.15;;;;;;;22.28;67.32;93659.41;5051040;28;20045;-92
2023/08/14 07:05:34;;;;;;;12.98;6.93;;;;;;;22.28;67.47;93656.66;5089769;28;20040;-91
2023/08/14 07:07:59;;;;;;;13.50;7.43;;;;;;;22.31;67.22;93658.31;5069664;28;20041;-91
2023/08/14 07:10:24;;;;;;;15.77;7.03;;;;;;;22.43;67.37;93647.84;5055911;28;20532;-91
2023/08/14 07:12:50;;;;;;;11.43;7.00;;;;;;;22.45;67.55;93662.56;5089003;28;20059;-92
2023/08/14 07:15:15;;;;;;;18.25;8.00;;;;;;;22.43;67.21;93653.34;5089503;28;20574;-90
2023/08/14 07:17:41;;;;;;;11.80;7.60;;;;;;;22.50;67.37;93649.97;5072832;28;20044;-91
2023/08/14 07:20:08;;;;;;;16.65;7.88;;;;;;;22.45;67.62;93657.06;5074937;28;20247;-91
2023/08/14 07:22:33;;;;;;;11.75;7.10;;;;;;;22.56;67.10;93653.31;5066693;28;20044;-91
2023/08/14 07:24:59;;;;;;;11.02;7.13;;;;;;;22.53;66.87;93652.38;5066757;28;20033;-92
2023/08/14 07:27:24;;;;;;;12.10;7.35;;;;;;;22.58;66.99;93643.25;5071725;28;20548;-91
2023/08/14 07:29:49;;;;;;;13.52;7.70;;;;;;;22.63;66.62;93635.41;5070565;28;20090;-91
2023/08/14 07:32:15;;;;;;;13.30;7.68;;;;;;;22.62;66.59;93648.44;5081701;28;20044;-92
2023/08/14 07:34:43;;;;;;;12.23;7.72;;;;;;;22.66;66.92;93646.13;5080136;28;20032;-92
2023/08/14 07:37:09;;;;;;;12.25;7.15;;;;;;;22.72;66.73;93649.50;5087703;28;20039;-92
2023/08/14 07:39:34;;;;;;;13.48;7.03;;;;;;;22.76;66.33;93635.38;5083202;28;20518;-92
2023/08/14 07:42:00;;;;;;;11.10;6.95;;;;;;;22.77;66.52;93642.38;5057724;28;20036;-91
2023/08/14 07:44:27;;;;;;;7.53;5.78;;;;;;;22.85;65.70;93643.97;5063954;28;20036;-92
2023/08/14 07:46:52;;;;;;;12.30;6.90;;;;;;;22.85;65.95;93641.22;5094143;28;20430;-91
2023/08/14 07:49:18;;;;;;;12.93;6.85;;;;;;;22.85;66.03;93643.22;5075524;28;20044;-91
2023/08/14 07:51:43;;;;;;;9.75;6.55;;;;;;;22.85;66.07;93634.97;5057042;28;20516;-92
2023/08/14 07:54:09;;;;;;;12.43;6.47;;;;;;;22.85;65.93;93648.75;5068262;28;20080;-91
2023/08/14 07:56:34;;;;;;;14.50;6.60;;;;;;;22.88;65.78;93633.91;5079796;27;20444;-92
2023/08/14 07:59:00;;;;;;;21.02;7.30;;;;;;;22.95;65.50;93643.53;5062744;28;20287;-91
2023/08/14 08:01:27;;;;;;;26.65;9.90;;;;;;;22.89;65.96;93632.63;5079377;27;20493;-91
2023/08/14 08:03:52;;;;;;;21.65;9.00;;;;;;;22.92;66.15;93650.13;5065168;27;20044;-92
2023/08/14 08:06:18;;;;;;;27.05;10.35;;;;;;;22.88;66.21;93642.91;5076483;27;20035;-90
2023/08/14 08:08:44;;;;;;;19.50;10.80;;;;;;;22.90;66.34;93639.63;5077330;27;20032;-91
2023/08/14 08:11:09;;;;;;;27.05;11.13;;;;;;;22.89;66.23;93635.38;5086727;28;20123;-90
2023/08/14 08:13:35;;;;;;;18.35;10.10;;;;;;;22.88;66.21;93634.63;5076709;28;20036;-90
2023/08/14 08:16:00;;;;;;;20.77;11.48;;;;;;;22.88;66.26;93647.69;5075407;28;20416;-89
2023/08/14 08:18:25;;;;;;;19.17;12.50;;;;;;;22.94;66.17;93642.78;5103793;27;20523;-89
2023/08/14 08:20:51;;;;;;;23.20;11.73;;;;;;;22.88;66.08;93647.69;5077684;28;20031;-90
2023/08/14 08:23:16;;;;;;;26.77;15.52;;;;;;;22.93;66.35;93640.56;5069852;28;20047;-89
2023/08/14 08:25:42;;;;;;;25.38;16.65;;;;;;;22.96;66.42;93639.47;5105548;28;20386;-90
2023/08/14 08:28:07;;;;;;;26.27;15.55;;;;;;;22.99;66.23;93635.66;5066112;28;20490;-89
2023/08/14 08:30:32;;;;;;;24.42;13.30;;;;;;;23.01;66.22;93639.34;5070477;28;20040;-91
2023/08/14 08:32:58;;;;;;;26.00;13.30;;;;;;;23.10;66.01;93640.94;5058794;28;20036;-90
2023/08/14 08:35:23;;;;;;;22.10;13.50;;;;;;;23.12;65.85;93635.63;5087527;28;20039;-90
2023/08/14 08:37:49;;;;;;;17.70;13.30;;;;;;;23.13;66.03;93648.88;5071784;28;20420;-89
2023/08/14 08:40:14;;;;;;;23.55;14.63;;;;;;;23.12;66.29;93650.16;5066007;28;20047;-89
2023/08/14 08:42:40;;;;;;;25.85;13.73;;;;;;;23.13;66.36;93642.63;5093045;28;20040;-90
2023/08/14 08:45:06;;;;;;;23.58;13.75;;;;;;;23.12;66.51;93643.88;5091647;28;20043;-88
2023/08/14 08:47:31;;;;;;;23.77;13.10;;;;;;;23.17;66.27;93640.97;5061950;28;20063;-90
2023/08/14 08:49:57;;;;;;;22.45;13.98;;;;;;;23.16;66.53;93641.53;5095624;27;20094;-90
2023/08/14 08:52:23;;;;;;;22.90;13.52;;;;;;;23.25;66.26;93641.06;5067621;28;20055;-90
2023/08/14 08:54:48;;;;;;;21.00;13.20;;;;;;;23.18;66.33;93638.97;5057066;28;20027;-89
2023/08/14 08:57:13;;;;;;;22.67;12.23;;;;;;;23.20;66.53;93642.66;5073551;28;20066;-89
2023/08/14 08:59:39;;;;;;;23.73;13.57;;;;;;;23.14;66.71;93636.56;5091065;27;20053;-88
2023/08/14 09:02:04;;;;;;;29.73;12.30;;;;;;;23.17;66.65;93643.00;5094559;27;20031;-89
2023/08/14 09:04:30;;;;;;;35.13;13.18;;;;;;;23.20;66.81;93645.44;5095268;27;20043;-89
2023/08/14 09:06:55;;;;;;;28.90;13.35;;;;;;;23.22;66.69;93639.38;5078869;28;20036;-89
2023/08/14 09:09:21;;;;;;;43.90;13.68;;;;;;;23.24;66.54;93648.59;5087952;28;20051;-89
2023/08/14 09:11:46;;;;;;;43.85;14.65;;;;;;;23.33;66.27;93649.41;5070694;27;20031;-90
2023/08/14 09:14:12;;;;;;;41.00;15.10;;;;;;;23.36;66.14;93651.09;5091579;27;20138;-89
2023/08/14 09:16:37;;;;;;;34.97;13.50;;;;;;;23.32;66.02;93645.91;5093085;27;20511;-89
2023/08/14 09:19:03;;;;;;;35.40;13.52;;;;;;;23.35;65.85;93644.84;5074376;28;20031;-89
2023/08/14 09:21:28;;;;;;;25.92;11.52;;;;;;;23.36;65.92;93640.06;5074045;27;20044;-91
2023/08/14 09:23:54;;;;;;;27.58;12.35;;;;;;;23.35;65.77;93644.13;5072407;28;20040;-90
2023/08/14 09:26:19;;;;;;;33.08;12.70;;;;;;;23.36;66.01;93642.84;5056331;28;20036;-91
2023/08/14 09:28:46;;;;;;;25.60;10.82;;;;;;;23.34;65.98;93634.34;5096549;27;20059;-90
2023/08/14 09:31:12;;;;;;;26.38;10.73;;;;;;;23.32;66.01;93640.41;5087341;27;20042;-90
2023/08/14 09:33:40;;;;;;;18.48;9.75;;;;;;;23.41;65.69;93626.13;5079548;27;20031;-89
2023/08/14 09:36:06;;;;;;;29.20;11.75;;;;;;;23.40;65.94;93634.94;5104635;28;20036;-90
2023/08/14 09:38:31;;;;;;;20.52;11.23;;;;;;;23.39;65.85;93627.94;5070247;28;20044;-90
2023/08/14 09:41:00;;;;;;;28.63;14.13;;;;;;;23.29;66.19;93637.97;5081812;27;20418;-88
2023/08/14 09:43:26;;;;;;;30.05;13.30;;;;;;;23.26;66.36;93637.03;5056484;28;20039;-90
2023/08/14 09:45:52;;;;;;;21.17;13.93;;;;;;;23.24;66.40;93640.31;5087845;27;20043;-89
2023/08/14 09:48:18;;;;;;;43.85;25.83;;;;;;;23.30;66.31;93639.47;5094113;27;20471;-91
2023/08/14 09:50:51;;;;;;;56.33;36.70;;;;;;;23.33;65.97;93635.63;5106734;28;20506;-90
2023/08/14 09:53:16;;;;;;;49.72;28.17;;;;;;;23.32;66.19;93634.88;5073216;28;20043;-90
2023/08/14 09:55:42;;;;;;;80.50;51.75;;;;;;;23.30;66.10;93634.69;5057714;28;20494;-89
2023/08/14 09:58:07;;;;;;;90.50;51.25;;;;;;;23.35;66.04;93635.84;5056900;28;20385;-90
2023/08/14 10:00:33;;;;;;;103.13;63.78;;;;;;;23.41;65.96;93639.91;5061007;28;20374;-89
2023/08/14 10:03:01;;;;;;;122.65;72.65;;;;;;;23.41;65.54;93631.66;5091886;28;20043;-90
2023/08/14 10:05:28;;;;;;;129.27;79.88;;;;;;;23.48;65.31;93636.50;5059088;28;20048;-90
2023/08/14 10:07:53;;;;;;;104.40;64.55;;;;;;;23.53;65.24;93637.66;5062903;28;20043;-88
2023/08/14 10:10:20;;;;;;;93.75;55.95;;;;;;;23.55;65.07;93626.84;5089654;27;20480;-90
2023/08/14 10:12:57;;;;;;;64.80;39.03;;;;;;;23.58;64.75;93623.00;5093870;27;20046;-89
2023/08/14 10:15:25;;;;;;;67.18;47.33;;;;;;;23.48;65.00;93621.97;5071676;27;20058;-89
2023/08/14 10:17:56;;;;;;;45.60;30.02;;;;;;;23.52;64.65;93623.13;5094058;27;20031;-88
2023/08/14 10:20:22;;;;;;;;;;;;;;;23.47;64.76;93626.00;5075091;27;20072;-89
2023/08/14 10:22:47;;;;;;;40.35;29.67;;;;;;;23.49;64.76;93617.91;5102479;28;19916;-89
2023/08/14 10:25:13;;;;;;;34.75;23.02;;;;;;;23.54;64.41;93626.09;5082590;28;20065;-89
2023/08/14 10:27:39;;;;;;;32.08;21.83;;;;;;;23.58;64.38;93625.75;5056649;28;20478;-89
2023/08/14 10:30:05;;;;;;;27.98;17.50;;;;;;;23.61;63.89;93626.69;5065472;27;20069;-89
2023/08/14 10:32:30;;;;;;;24.98;16.83;;;;;;;23.65;63.80;93613.28;5081691;28;20043;-88
2023/08/14 10:34:56;;;;;;;22.85;14.80;;;;;;;23.63;63.56;93619.34;5040443;28;20043;-89
2023/08/14 10:37:28;;;;;;;17.27;14.65;;;;;;;23.63;63.31;93619.34;5090143;28;20048;-90
2023/08/14 10:40:17;;;;;;;17.20;11.82;;;;;;;23.62;63.33;93606.09;5081296;28;20114;-89
2023/08/14 10:42:56;;;;;;;15.88;11.88;;;;;;;23.64;63.05;93612.53;5090128;28;20104;-88
2023/08/14 10:45:22;;;;;;;18.02;11.10;;;;;;;23.68;62.76;93610.19;5089244;28;20258;-89
2023/08/14 10:47:47;;;;;;;13.70;9.80;;;;;;;23.66;62.40;93609.25;5056113;28;20068;-88
2023/08/14 10:50:26;;;;;;;13.68;9.52;;;;;;;23.65;62.48;93616.78;5065064;27;20043;-89
2023/08/14 10:52:52;;;;;;;17.20;9.90;;;;;;;23.71;61.93;93614.63;5069273;28;20495;-89
2023/08/14 10:55:23;;;;;;;10.43;9.18;;;;;;;23.65;62.17;93611.25;5055892;28;20035;-88
2023/08/14 10:57:48;;;;;;;16.50;8.93;;;;;;;23.74;61.65;93621.09;5052306;28;20036;-87
2023/08/14 11:00:22;;;;;;;20.58;13.80;;;;;;;23.72;61.60;93609.84;5077425;27;20035;-88
2023/08/14 11:03:06;;;;;;;30.60;19.60;;;;;;;23.70;61.20;93610.38;5067403;28;20112;-88
2023/08/14 11:05:37;;;;;;;62.10;41.72;;;;;;;23.76;60.60;93602.72;5041896;28;20043;-88
2023/08/14 11:08:03;;;;;;;101.07;42.38;;;;;;;23.79;60.36;93607.16;5058800;28;20044;-89
2023/08/14 11:10:28;;;;;;;63.85;41.65;;;;;;;23.80;60.06;93605.88;5081047;27;20042;-88
2023/08/14 11:12:56;;;;;;;74.32;46.45;;;;;;;23.78;60.17;93604.94;5092644;28;20046;-88
2023/08/14 11:15:21;;;;;;;65.43;40.10;;;;;;;23.80;60.09;93607.91;5079855;28;20044;-88
2023/08/14 11:17:47;;;;;;;54.40;34.47;;;;;;;23.75;60.40;93609.50;5074043;28;20491;-88
2023/08/14 11:20:16;;;;;;;63.90;39.95;;;;;;;23.69;60.86;93600.63;5074923;28;20035;-87